Terminal Aerodrome Forecast
Issued by NWS

Home | Current Version | Previous Version | Text Only | Print | Product List | Glossary On
Versions: 1 2 3 4 5 6 7 8 9 10 11 12 13 14 15
953
FTUS42 KMLB 232325 CCA
TAFSFB
TAF COR
KSFB 232325Z 2400/2424 10003KT P6SM SKC
      TEMPO 2411/2413 5SM MIFG BR
     FM241500 13008KT P6SM SCT040
      TEMPO 2417/2420 BKN045=

USA.gov is the U.S. government's official web portal to all federal, state and local government web resources and services.